createdAt,value
2023-03-27T00:02:23.678Z,18.75
2023-03-27T00:06:23.382Z,18.72
2023-03-27T00:10:23.352Z,18.70
2023-03-27T00:14:23.343Z,18.72
2023-03-27T00:18:23.283Z,18.74
2023-03-27T00:22:23.260Z,18.73
2023-03-27T00:26:23.230Z,18.71
2023-03-27T00:30:23.175Z,18.72
2023-03-27T00:34:23.139Z,18.69
2023-03-27T00:38:23.096Z,18.68
2023-03-27T00:42:23.204Z,18.67
2023-03-27T00:46:23.138Z,18.66
2023-03-27T00:50:23.094Z,18.66
2023-03-27T00:54:23.043Z,18.65
2023-03-27T00:58:23.028Z,18.66
2023-03-27T01:02:23.092Z,18.66
2023-03-27T01:06:23.041Z,18.65
2023-03-27T01:10:23.032Z,18.63
2023-03-27T01:14:23.150Z,18.62
2023-03-27T01:18:23.106Z,18.62
2023-03-27T01:22:23.116Z,18.61
2023-03-27T01:26:36.096Z,18.61
2023-03-27T01:30:24.063Z,18.59
2023-03-27T01:34:23.030Z,18.57
2023-03-27T01:38:22.991Z,18.57
2023-03-27T01:42:22.960Z,18.57
2023-03-27T01:46:23.102Z,18.56
2023-03-27T01:50:22.899Z,18.55
2023-03-27T01:54:22.840Z,18.54
2023-03-27T01:58:22.855Z,18.53
2023-03-27T02:02:22.896Z,18.52
2023-03-27T02:06:22.890Z,18.52
2023-03-27T02:10:22.942Z,18.52
2023-03-27T02:14:22.949Z,18.51
2023-03-27T02:18:23.044Z,18.50
2023-03-27T02:22:37.767Z,18.51
2023-03-27T02:26:23.984Z,18.49
2023-03-27T02:30:22.982Z,18.49
2023-03-27T02:34:22.927Z,18.47
2023-03-27T02:38:22.909Z,18.46
2023-03-27T02:42:22.830Z,18.46
2023-03-27T02:46:22.915Z,18.45
2023-03-27T02:50:22.833Z,18.45
2023-03-27T02:54:22.919Z,18.43
2023-03-27T02:58:23.021Z,18.42
2023-03-27T03:02:23.307Z,18.41
2023-03-27T03:06:23.195Z,18.40
2023-03-27T03:10:23.311Z,18.40
2023-03-27T03:14:23.428Z,18.40
2023-03-27T03:18:23.518Z,18.38
2023-03-27T03:22:23.626Z,18.38
2023-03-27T03:26:23.737Z,18.38
2023-03-27T03:30:23.845Z,18.38
2023-03-27T03:34:23.965Z,18.37
2023-03-27T03:38:24.096Z,18.36
2023-03-27T03:42:24.431Z,18.37
2023-03-27T03:46:24.305Z,18.39
2023-03-27T03:50:24.369Z,18.38
2023-03-27T03:54:24.451Z,18.38
2023-03-27T03:58:34.485Z,18.38
2023-03-27T04:02:25.556Z,18.37
2023-03-27T04:06:24.453Z,18.35
2023-03-27T04:10:24.406Z,18.34
2023-03-27T04:14:24.396Z,18.29
2023-03-27T04:18:24.769Z,18.31
2023-03-27T04:22:24.708Z,18.29
2023-03-27T04:26:24.888Z,18.27
2023-03-27T04:30:24.962Z,18.28
2023-03-27T04:34:25.115Z,18.28
2023-03-27T04:38:25.281Z,18.26
2023-03-27T04:42:25.414Z,18.24
2023-03-27T04:46:25.648Z,18.22
2023-03-27T04:50:25.738Z,18.30
2023-03-27T04:54:25.898Z,18.43
2023-03-27T04:58:25.990Z,18.57
2023-03-27T05:02:26.057Z,18.65
2023-03-27T05:06:26.052Z,18.72
2023-03-27T05:10:26.077Z,18.76
2023-03-27T05:14:26.124Z,18.78
2023-03-27T05:18:26.762Z,18.83
2023-03-27T05:22:26.068Z,18.86
2023-03-27T05:26:26.047Z,18.87
2023-03-27T05:30:26.181Z,18.91
2023-03-27T05:34:26.017Z,18.95
2023-03-27T05:38:26.083Z,18.98
2023-03-27T05:42:26.294Z,19.05
2023-03-27T05:46:26.816Z,19.12
2023-03-27T05:50:26.445Z,19.28
2023-03-27T05:54:26.806Z,19.42
2023-03-27T05:58:26.797Z,19.36
2023-03-27T06:02:26.399Z,19.57
2023-03-27T06:06:26.244Z,19.85
2023-03-27T06:10:26.242Z,20.10
2023-03-27T06:14:26.200Z,20.26
2023-03-27T06:18:26.338Z,20.39
2023-03-27T06:22:26.122Z,20.48
2023-03-27T06:26:26.086Z,20.54
2023-03-27T06:30:26.065Z,20.61
2023-03-27T06:34:26.336Z,20.68
2023-03-27T06:38:26.069Z,20.74
2023-03-27T06:42:26.327Z,20.79
2023-03-27T06:46:35.272Z,20.81
2023-03-27T06:50:27.883Z,20.84
2023-03-27T06:54:26.431Z,20.88
2023-03-27T06:58:26.708Z,20.91
2023-03-27T07:02:26.682Z,20.92
2023-03-27T07:06:26.682Z,20.94
2023-03-27T07:10:26.747Z,20.96
2023-03-27T07:14:26.740Z,21.01
2023-03-27T07:18:26.897Z,21.03
2023-03-27T07:22:26.718Z,21.06
2023-03-27T07:26:26.751Z,21.10
2023-03-27T07:30:26.726Z,21.12
2023-03-27T07:34:26.857Z,21.17
2023-03-27T07:38:26.694Z,21.19
2023-03-27T07:42:26.743Z,21.21
2023-03-27T07:46:27.340Z,21.20
2023-03-27T07:50:27.356Z,21.17
2023-03-27T07:54:27.356Z,21.12
2023-03-27T07:58:27.173Z,21.11
2023-03-27T08:02:26.989Z,21.08
2023-03-27T08:06:27.107Z,21.09
2023-03-27T08:10:27.156Z,21.06
2023-03-27T08:14:27.351Z,21.04
2023-03-27T08:18:27.351Z,21.01
2023-03-27T08:22:27.839Z,20.99
2023-03-27T08:26:27.479Z,20.99
2023-03-27T08:30:27.863Z,20.98
2023-03-27T08:34:27.712Z,20.97
2023-03-27T08:38:27.875Z,20.99
2023-03-27T08:42:28.378Z,21.07
2023-03-27T08:46:28.421Z,21.12
2023-03-27T08:50:28.371Z,21.16
2023-03-27T08:54:28.062Z,21.23
2023-03-27T08:58:28.398Z,21.29
2023-03-27T09:02:28.356Z,21.32
2023-03-27T09:06:28.218Z,21.34
2023-03-27T09:10:28.180Z,21.37
2023-03-27T09:14:28.396Z,21.38
2023-03-27T09:18:35.418Z,21.42
2023-03-27T09:22:28.078Z,21.42
2023-03-27T09:26:28.408Z,21.44
2023-03-27T09:30:27.974Z,21.53
2023-03-27T09:34:28.389Z,21.60
2023-03-27T09:38:35.434Z,21.67
2023-03-27T09:42:27.922Z,21.71
2023-03-27T09:46:27.877Z,21.70
2023-03-27T09:50:28.024Z,21.71
2023-03-27T09:54:27.897Z,21.74
2023-03-27T09:58:27.809Z,21.71
2023-03-27T10:02:27.899Z,21.68
2023-03-27T10:06:28.917Z,21.70
2023-03-27T10:10:28.101Z,21.70
2023-03-27T10:14:28.435Z,21.72
2023-03-27T10:18:28.233Z,21.73
2023-03-27T10:22:28.302Z,21.78
2023-03-27T10:26:28.359Z,21.80
2023-03-27T10:30:28.493Z,21.84
2023-03-27T10:34:28.449Z,21.85
2023-03-27T10:38:28.946Z,21.87
2023-03-27T10:42:28.917Z,21.86
2023-03-27T10:46:28.981Z,21.87
2023-03-27T10:50:28.668Z,21.92
2023-03-27T10:54:30.069Z,21.96
2023-03-27T10:58:28.674Z,22.00
2023-03-27T11:02:29.017Z,22.05
2023-03-27T11:06:28.603Z,22.11
2023-03-27T11:10:28.591Z,22.14
2023-03-27T11:14:28.966Z,22.17
2023-03-27T11:18:28.510Z,22.20
2023-03-27T11:22:28.473Z,22.20
2023-03-27T11:26:28.413Z,22.21
2023-03-27T11:30:28.459Z,22.22
2023-03-27T11:34:29.443Z,22.22
2023-03-27T11:38:28.436Z,22.21
2023-03-27T11:42:28.284Z,22.20
2023-03-27T11:46:28.357Z,22.18
2023-03-27T11:50:28.202Z,22.15
2023-03-27T11:54:28.166Z,22.16
2023-03-27T11:58:28.131Z,22.15
2023-03-27T12:02:28.203Z,22.15
2023-03-27T12:06:28.466Z,22.15
2023-03-27T12:10:29.030Z,22.09
2023-03-27T12:14:40.126Z,22.12
2023-03-27T12:18:35.809Z,22.18
2023-03-27T12:22:29.016Z,22.24
2023-03-27T12:26:27.930Z,22.24
2023-03-27T12:30:27.890Z,22.25
2023-03-27T12:34:27.845Z,22.20
2023-03-27T12:38:27.848Z,22.14
2023-03-27T12:42:27.900Z,22.09
2023-03-27T12:46:27.826Z,22.21
2023-03-27T12:50:27.698Z,22.19
2023-03-27T12:54:27.679Z,22.18
2023-03-27T12:58:27.717Z,22.17
2023-03-27T13:02:28.060Z,22.06
2023-03-27T13:06:27.962Z,21.99
2023-03-27T13:10:28.196Z,21.94
2023-03-27T13:14:28.372Z,21.95
2023-03-27T13:18:28.555Z,22.06
2023-03-27T13:22:28.804Z,22.20
2023-03-27T13:26:28.969Z,22.13
2023-03-27T13:30:29.160Z,22.08
2023-03-27T13:34:29.355Z,22.18
2023-03-27T13:38:29.640Z,22.12
2023-03-27T13:42:29.725Z,22.11
2023-03-27T13:46:29.966Z,22.14
2023-03-27T13:50:30.127Z,22.24
2023-03-27T13:54:30.293Z,22.16
2023-03-27T13:58:30.481Z,22.10
2023-03-27T14:02:30.713Z,22.15
2023-03-27T14:06:30.865Z,22.10
2023-03-27T14:10:31.122Z,22.11
2023-03-27T14:14:31.536Z,22.12
2023-03-27T14:18:31.482Z,22.14
2023-03-27T14:22:31.682Z,22.09
2023-03-27T14:26:31.851Z,22.18
2023-03-27T14:30:32.046Z,22.16
2023-03-27T14:34:40.149Z,22.04
2023-03-27T14:38:33.255Z,21.95
2023-03-27T14:42:33.106Z,22.00
2023-03-27T14:46:32.187Z,22.11
2023-03-27T14:50:32.117Z,22.15
2023-03-27T14:54:39.165Z,22.14
2023-03-27T14:58:33.070Z,22.15
2023-03-27T15:06:32.061Z,22.27
2023-03-27T15:10:32.603Z,22.18
2023-03-27T15:14:32.406Z,22.13
2023-03-27T15:18:32.537Z,22.18
2023-03-27T15:22:32.714Z,22.19
2023-03-27T15:26:32.918Z,22.22
2023-03-27T15:30:33.077Z,22.26
2023-03-27T15:34:33.271Z,22.20
2023-03-27T15:38:33.447Z,22.12
2023-03-27T15:42:33.637Z,22.05
2023-03-27T15:46:33.903Z,21.99
2023-03-27T15:50:33.977Z,22.08
2023-03-27T15:54:34.144Z,22.11
2023-03-27T15:58:34.327Z,22.08
2023-03-27T16:02:34.601Z,22.05
2023-03-27T16:06:34.702Z,22.11
2023-03-27T16:10:34.857Z,22.21
2023-03-27T16:14:35.059Z,22.26
2023-03-27T16:18:35.272Z,22.27
2023-03-27T16:22:35.490Z,22.26
2023-03-27T16:26:35.634Z,22.21
2023-03-27T16:30:35.806Z,22.14
2023-03-27T16:34:36.049Z,21.99
2023-03-27T16:38:36.008Z,21.92
2023-03-27T16:42:35.982Z,21.87
2023-03-27T16:46:36.067Z,21.84
2023-03-27T16:50:35.928Z,21.77
2023-03-27T16:54:35.891Z,21.80
2023-03-27T16:58:35.836Z,21.90
2023-03-27T17:02:35.834Z,21.81
2023-03-27T17:06:35.762Z,21.73
2023-03-27T17:10:35.697Z,21.67
2023-03-27T17:14:35.715Z,21.63
2023-03-27T17:18:35.658Z,21.59
2023-03-27T17:22:35.673Z,21.56
2023-03-27T17:26:35.709Z,21.55
2023-03-27T17:30:41.078Z,21.52
2023-03-27T17:34:36.701Z,21.50
2023-03-27T17:38:35.644Z,21.48
2023-03-27T17:42:35.610Z,21.47
2023-03-27T17:46:35.652Z,21.47
2023-03-27T17:50:35.531Z,21.46
2023-03-27T17:54:35.515Z,21.45
2023-03-27T17:58:35.455Z,21.45
2023-03-27T18:02:35.609Z,21.44
2023-03-27T18:06:35.400Z,21.42
2023-03-27T18:10:35.715Z,21.42
2023-03-27T18:14:35.429Z,21.40
2023-03-27T18:18:35.426Z,21.39
2023-03-27T18:22:35.438Z,21.39
2023-03-27T18:26:35.429Z,21.39
2023-03-27T18:30:35.446Z,21.38
2023-03-27T18:34:35.490Z,21.36
2023-03-27T18:38:35.524Z,21.35
2023-03-27T18:42:35.589Z,21.33
2023-03-27T18:46:35.610Z,21.31
2023-03-27T18:50:35.586Z,21.30
2023-03-27T18:54:35.688Z,21.29
2023-03-27T18:58:35.740Z,21.27
2023-03-27T19:02:35.952Z,21.27
2023-03-27T19:06:35.808Z,21.25
2023-03-27T19:10:35.862Z,21.24
2023-03-27T19:14:35.945Z,21.24
2023-03-27T19:18:35.971Z,21.24
2023-03-27T19:22:36.089Z,21.22
2023-03-27T19:26:36.171Z,21.20
2023-03-27T19:30:36.265Z,21.19
2023-03-27T19:34:42.826Z,21.17
2023-03-27T19:38:37.397Z,21.15
2023-03-27T19:42:36.272Z,21.14
2023-03-27T19:46:36.258Z,21.12
2023-03-27T19:50:36.192Z,21.11
2023-03-27T19:54:36.225Z,21.10
2023-03-27T19:58:36.358Z,21.09
2023-03-27T20:02:36.660Z,21.09
2023-03-27T20:06:36.596Z,21.08
2023-03-27T20:10:36.712Z,21.07
2023-03-27T20:14:36.862Z,21.06
2023-03-27T20:18:37.030Z,21.06
2023-03-27T20:22:50.182Z,21.05
2023-03-27T20:26:38.108Z,21.04
2023-03-27T20:30:37.047Z,21.03
2023-03-27T20:34:37.014Z,21.03
2023-03-27T20:38:37.045Z,21.03
2023-03-27T20:42:37.188Z,21.02
2023-03-27T20:46:37.319Z,21.01
2023-03-27T20:50:37.458Z,21.00
2023-03-27T20:54:37.637Z,20.98
2023-03-27T20:58:37.729Z,20.98
2023-03-27T21:02:38.019Z,20.97
2023-03-27T21:06:38.059Z,20.97
2023-03-27T21:10:38.255Z,20.96
2023-03-27T21:14:38.379Z,20.98
2023-03-27T21:18:38.532Z,20.98
2023-03-27T21:22:38.719Z,20.96
2023-03-27T21:26:38.908Z,20.94
2023-03-27T21:30:46.671Z,20.94
2023-03-27T21:34:40.060Z,20.93
2023-03-27T21:38:39.002Z,20.93
2023-03-27T21:42:39.012Z,20.92
2023-03-27T21:46:39.251Z,20.91
2023-03-27T21:50:39.420Z,20.91
2023-03-27T21:54:43.547Z,20.89
2023-03-27T21:58:40.513Z,20.88
2023-03-27T22:02:39.594Z,20.87
2023-03-27T22:06:39.487Z,20.87
2023-03-27T22:10:39.675Z,20.86
2023-03-27T22:14:39.881Z,20.86
2023-03-27T22:18:40.143Z,20.85
2023-03-27T22:22:40.308Z,20.85
2023-03-27T22:26:40.447Z,20.84
2023-03-27T22:30:40.667Z,20.85
2023-03-27T22:34:40.859Z,20.84
2023-03-27T22:38:41.115Z,20.83
2023-03-27T22:42:41.258Z,20.83
2023-03-27T22:46:41.509Z,20.81
2023-03-27T22:50:41.703Z,20.79
2023-03-27T22:54:41.866Z,20.79
2023-03-27T22:58:42.154Z,20.79
2023-03-27T23:02:42.505Z,20.78
2023-03-27T23:06:42.622Z,20.77
2023-03-27T23:10:42.755Z,20.77
2023-03-27T23:14:42.984Z,20.75
2023-03-27T23:18:43.146Z,20.75
2023-03-27T23:22:43.354Z,20.75
2023-03-27T23:26:44.230Z,20.73
2023-03-27T23:30:43.755Z,20.73
2023-03-27T23:34:43.973Z,20.72
2023-03-27T23:38:44.161Z,20.71
2023-03-27T23:42:44.364Z,20.72
2023-03-27T23:46:44.540Z,20.72
2023-03-27T23:50:44.553Z,20.72
2023-03-27T23:54:44.504Z,20.71
2023-03-27T23:58:44.453Z,20.70
